createdAt,value
2023-05-05T00:00:25.636Z,0.99
2023-05-05T00:02:52.479Z,1.01
2023-05-05T00:05:19.401Z,0.92
2023-05-05T00:07:46.248Z,0.86
2023-05-05T00:10:13.073Z,1.22
2023-05-05T00:12:41.324Z,0.94
2023-05-05T00:15:08.956Z,0.99
2023-05-05T00:17:35.766Z,0.98
2023-05-05T00:20:02.649Z,1.00
2023-05-05T00:22:29.459Z,0.96
2023-05-05T00:24:56.285Z,0.95
2023-05-05T00:27:23.046Z,1.01
2023-05-05T00:29:51.231Z,1.14
2023-05-05T00:32:18.026Z,1.29
2023-05-05T00:34:44.753Z,1.06
2023-05-05T00:37:11.519Z,1.00
2023-05-05T00:39:38.285Z,0.91
2023-05-05T00:42:05.259Z,1.06
2023-05-05T00:44:38.090Z,0.99
2023-05-05T00:47:06.422Z,1.36
2023-05-05T00:49:34.508Z,1.56
2023-05-05T00:52:02.221Z,1.36
2023-05-05T00:54:29.532Z,1.20
2023-05-05T00:56:56.515Z,1.15
2023-05-05T00:59:23.465Z,1.36
2023-05-05T01:01:50.295Z,1.45
2023-05-05T01:04:18.775Z,1.63
2023-05-05T01:06:53.994Z,1.20
2023-05-05T01:09:28.577Z,1.14
2023-05-05T01:12:05.121Z,1.42
2023-05-05T01:14:38.696Z,1.36
2023-05-05T01:17:13.866Z,1.58
2023-05-05T01:20:09.360Z,1.23
2023-05-05T01:22:40.156Z,1.17
2023-05-05T01:25:34.441Z,1.09
2023-05-05T01:28:24.483Z,1.00
2023-05-05T01:31:09.064Z,1.11
2023-05-05T01:36:13.160Z,1.22
2023-05-05T01:38:42.306Z,1.43
2023-05-05T01:41:13.508Z,1.36
2023-05-05T01:43:42.961Z,1.23
2023-05-05T01:46:10.407Z,0.96
2023-05-05T01:48:41.790Z,0.97
2023-05-05T01:51:11.678Z,0.93
2023-05-05T01:53:39.514Z,1.00
2023-05-05T01:56:08.388Z,1.04
2023-05-05T01:58:36.375Z,0.95
2023-05-05T02:01:04.549Z,0.94
2023-05-05T02:03:32.441Z,0.87
2023-05-05T02:06:01.748Z,1.02
2023-05-05T02:08:29.983Z,0.97
2023-05-05T02:10:57.788Z,1.08
2023-05-05T02:13:25.467Z,0.88
2023-05-05T02:15:53.278Z,0.99
2023-05-05T02:18:22.227Z,1.00
2023-05-05T02:20:49.235Z,1.22
2023-05-05T02:23:17.399Z,1.33
2023-05-05T02:25:50.051Z,1.25
2023-05-05T02:28:22.266Z,1.35
2023-05-05T02:30:55.344Z,1.18
2023-05-05T02:33:23.728Z,1.09
2023-05-05T02:35:53.375Z,0.99
2023-05-05T02:38:26.276Z,1.06
2023-05-05T02:40:55.753Z,0.99
2023-05-05T02:43:24.555Z,1.10
2023-05-05T02:45:51.583Z,1.15
2023-05-05T02:48:18.324Z,1.14
2023-05-05T02:50:45.119Z,1.10
2023-05-05T02:53:12.104Z,1.33
2023-05-05T02:55:45.626Z,1.18
2023-05-05T02:58:21.759Z,1.13
2023-05-05T03:00:55.409Z,1.18
2023-05-05T03:03:28.085Z,1.21
2023-05-05T03:06:05.089Z,1.22
2023-05-05T03:08:36.958Z,1.08
2023-05-05T03:11:07.953Z,0.97
2023-05-05T03:13:37.945Z,1.16
2023-05-05T03:16:07.289Z,1.23
2023-05-05T03:18:35.330Z,1.16
2023-05-05T03:21:04.155Z,1.18
2023-05-05T03:23:32.837Z,1.36
2023-05-05T03:25:59.620Z,1.46
2023-05-05T03:28:28.427Z,1.26
2023-05-05T03:30:55.588Z,1.37
2023-05-05T03:33:22.818Z,1.34
2023-05-05T03:35:49.569Z,1.16
2023-05-05T03:38:16.351Z,1.27
2023-05-05T03:40:44.813Z,1.22
2023-05-05T03:43:12.034Z,1.15
2023-05-05T03:45:40.279Z,1.17
2023-05-05T03:48:07.222Z,1.10
2023-05-05T03:50:34.062Z,1.07
2023-05-05T03:53:00.938Z,1.02
2023-05-05T03:55:27.784Z,1.08
2023-05-05T03:57:54.579Z,1.01
2023-05-05T04:00:21.609Z,1.02
2023-05-05T04:02:49.927Z,1.01
2023-05-05T04:05:17.128Z,1.08
2023-05-05T04:07:44.984Z,1.14
2023-05-05T04:10:11.842Z,1.09
2023-05-05T04:12:38.726Z,1.19
2023-05-05T04:15:06.879Z,1.22
2023-05-05T04:17:33.669Z,1.70
2023-05-05T04:20:02.164Z,1.48
2023-05-05T04:22:28.940Z,1.39
2023-05-05T04:24:55.703Z,1.70
2023-05-05T04:27:22.454Z,1.62
2023-05-05T04:29:49.303Z,1.49
2023-05-05T04:32:16.247Z,1.40
2023-05-05T04:34:43.209Z,1.16
2023-05-05T04:37:11.772Z,1.06
2023-05-05T04:39:38.574Z,1.27
2023-05-05T04:42:05.514Z,1.15
2023-05-05T04:44:33.378Z,0.99
2023-05-05T04:47:00.649Z,0.88
2023-05-05T04:49:29.584Z,0.99
2023-05-05T04:51:56.645Z,1.00
2023-05-05T04:54:25.247Z,0.94
2023-05-05T04:56:52.277Z,0.93
2023-05-05T04:59:19.033Z,0.93
2023-05-05T05:01:45.827Z,1.08
2023-05-05T05:04:12.793Z,1.03
2023-05-05T05:06:39.540Z,1.06
2023-05-05T05:09:06.444Z,1.04
2023-05-05T05:11:34.721Z,1.07
2023-05-05T05:14:01.664Z,1.25
2023-05-05T05:16:28.711Z,1.71
2023-05-05T05:18:55.493Z,2.16
2023-05-05T05:21:22.396Z,1.65
2023-05-05T05:23:49.243Z,1.40
2023-05-05T05:26:16.105Z,1.50
2023-05-05T05:28:44.344Z,1.67
2023-05-05T05:31:11.103Z,1.20
2023-05-05T05:33:38.045Z,1.24
2023-05-05T05:36:05.917Z,1.22
2023-05-05T05:38:33.604Z,0.96
2023-05-05T05:41:05.121Z,0.98
2023-05-05T05:43:34.135Z,0.97
2023-05-05T05:46:02.450Z,1.02
2023-05-05T05:48:29.277Z,1.12
2023-05-05T05:50:56.129Z,0.96
2023-05-05T05:53:23.186Z,0.81
2023-05-05T05:55:50.313Z,0.80
2023-05-05T05:58:18.601Z,0.91
2023-05-05T06:00:45.652Z,1.21
2023-05-05T06:03:13.904Z,0.97
2023-05-05T06:05:41.018Z,0.92
2023-05-05T06:08:08.107Z,0.88
2023-05-05T06:10:35.228Z,2.09
2023-05-05T06:13:02.729Z,2.07
2023-05-05T06:15:30.000Z,1.84
2023-05-05T06:17:56.865Z,1.46
2023-05-05T06:20:25.267Z,1.26
2023-05-05T06:22:52.091Z,0.86
2023-05-05T06:25:18.864Z,0.64
2023-05-05T06:27:45.763Z,0.74
2023-05-05T06:30:13.590Z,0.63
2023-05-05T06:33:13.835Z,0.52
2023-05-05T06:36:08.138Z,0.51
2023-05-05T06:40:07.981Z,0.59
2023-05-05T06:41:36.600Z,0.50
2023-05-05T06:44:08.247Z,0.54
2023-05-05T06:46:35.080Z,0.49
2023-05-05T06:49:02.028Z,0.46
2023-05-05T06:51:41.043Z,0.43
2023-05-05T06:54:09.461Z,0.42
2023-05-05T06:56:36.305Z,0.48
2023-05-05T06:59:03.574Z,0.40
2023-05-05T07:01:36.526Z,0.54
2023-05-05T07:04:03.382Z,0.50
2023-05-05T07:06:31.689Z,0.47
2023-05-05T07:08:58.917Z,0.55
2023-05-05T07:11:27.041Z,0.51
2023-05-05T07:13:56.602Z,0.55
2023-05-05T07:16:25.063Z,0.52
2023-05-05T07:18:53.077Z,0.53
2023-05-05T07:21:20.658Z,0.47
2023-05-05T07:23:50.988Z,0.56
2023-05-05T07:26:18.719Z,0.48
2023-05-05T07:28:46.058Z,0.44
2023-05-05T07:31:12.999Z,0.45
2023-05-05T07:33:40.201Z,0.43
2023-05-05T07:36:07.491Z,0.48
2023-05-05T07:38:36.508Z,0.72
2023-05-05T07:41:05.553Z,0.61
2023-05-05T07:43:39.413Z,0.54
2023-05-05T07:46:09.878Z,0.48
2023-05-05T07:48:40.081Z,0.59
2023-05-05T07:51:07.233Z,0.51
2023-05-05T07:53:34.509Z,0.55
2023-05-05T07:56:07.001Z,0.68
2023-05-05T07:58:40.480Z,0.65
2023-05-05T08:01:07.728Z,0.67
2023-05-05T08:03:34.721Z,0.65
2023-05-05T08:06:07.147Z,0.58
2023-05-05T08:08:33.949Z,0.66
2023-05-05T08:11:01.128Z,0.62
2023-05-05T08:13:29.701Z,0.54
2023-05-05T08:15:56.854Z,0.64
2023-05-05T08:18:23.767Z,0.63
2023-05-05T08:20:50.973Z,0.62
2023-05-05T08:23:18.201Z,0.81
2023-05-05T08:25:45.042Z,0.70
2023-05-05T08:28:11.973Z,0.76
2023-05-05T08:30:41.100Z,0.64
2023-05-05T08:33:11.603Z,0.62
2023-05-05T08:35:41.967Z,0.59
2023-05-05T08:38:09.816Z,0.60
2023-05-05T08:40:39.329Z,0.67
2023-05-05T08:43:15.529Z,0.86
2023-05-05T08:46:09.734Z,0.84
2023-05-05T08:48:43.791Z,0.85
2023-05-05T08:53:49.430Z,0.79
2023-05-05T08:56:19.698Z,0.78
2023-05-05T08:58:47.818Z,0.80
2023-05-05T09:01:19.431Z,0.89
2023-05-05T09:03:46.535Z,0.80
2023-05-05T09:06:13.750Z,0.75
2023-05-05T09:11:44.411Z,0.83
2023-05-05T09:14:17.612Z,0.72
2023-05-05T09:16:48.247Z,0.67
2023-05-05T09:19:17.877Z,0.59
2023-05-05T09:21:50.827Z,0.59
2023-05-05T09:24:19.783Z,0.70
2023-05-05T09:26:50.916Z,0.77
2023-05-05T09:29:19.107Z,0.78
2023-05-05T09:32:01.224Z,0.70
2023-05-05T09:34:28.941Z,0.65
2023-05-05T09:36:56.275Z,0.65
2023-05-05T09:39:30.760Z,0.72
2023-05-05T09:41:59.848Z,0.70
2023-05-05T09:44:38.223Z,0.65
2023-05-05T09:47:21.982Z,0.82
2023-05-05T09:50:01.520Z,0.77
2023-05-05T09:52:28.906Z,0.74
2023-05-05T09:55:07.226Z,0.63
2023-05-05T09:57:40.496Z,0.66
2023-05-05T10:00:29.288Z,0.75
2023-05-05T10:05:52.900Z,0.61
2023-05-05T10:08:28.059Z,0.69
2023-05-05T10:11:12.367Z,0.65
2023-05-05T10:13:41.205Z,0.58
2023-05-05T10:16:09.852Z,0.52
2023-05-05T10:18:46.091Z,0.51
2023-05-05T10:32:40.574Z,0.60
2023-05-05T10:35:02.398Z,0.47
2023-05-05T10:37:30.006Z,0.46
2023-05-05T10:39:57.358Z,0.55
2023-05-05T10:42:24.599Z,0.53
2023-05-05T10:44:52.087Z,0.47
2023-05-05T10:47:22.451Z,1.23
2023-05-05T10:49:55.884Z,4.23
2023-05-05T10:52:32.796Z,3.24
2023-05-05T10:55:08.069Z,1.93
2023-05-05T10:57:39.085Z,1.41
2023-05-05T11:00:07.764Z,1.24
2023-05-05T11:02:36.239Z,1.31
2023-05-05T11:05:08.772Z,0.93
2023-05-05T11:07:36.105Z,0.72
2023-05-05T11:10:04.452Z,0.65
2023-05-05T11:12:32.972Z,0.65
2023-05-05T11:15:34.048Z,0.87
2023-05-05T11:18:05.869Z,0.75
2023-05-05T11:21:05.716Z,0.58
2023-05-05T11:23:32.737Z,0.45
2023-05-05T11:26:00.291Z,0.43
2023-05-05T11:28:31.221Z,0.37
2023-05-05T11:31:25.856Z,0.38
2023-05-05T11:36:36.812Z,0.31
2023-05-05T11:39:09.251Z,0.27
2023-05-05T11:41:57.495Z,0.38
2023-05-05T11:44:31.558Z,0.35
2023-05-05T11:49:45.100Z,0.42
2023-05-05T11:52:13.434Z,0.40
2023-05-05T11:54:42.466Z,0.35
2023-05-05T11:57:09.399Z,0.33
2023-05-05T11:59:49.731Z,0.31
2023-05-05T12:02:16.829Z,0.31
2023-05-05T12:04:45.331Z,0.28
2023-05-05T12:07:17.149Z,0.29
2023-05-05T12:09:45.550Z,0.30
2023-05-05T12:12:12.864Z,0.30
2023-05-05T12:14:47.553Z,0.30
2023-05-05T12:17:14.806Z,0.30
2023-05-05T12:19:52.264Z,0.25
2023-05-05T12:22:21.415Z,0.25
2023-05-05T12:24:58.267Z,0.23
2023-05-05T12:27:26.062Z,0.30
2023-05-05T12:29:54.451Z,0.25
2023-05-05T12:32:24.903Z,0.27
2023-05-05T12:34:54.240Z,0.45
2023-05-05T12:37:22.264Z,0.38
2023-05-05T12:39:49.922Z,0.37
2023-05-05T12:42:17.473Z,0.43
2023-05-05T12:44:44.394Z,0.42
2023-05-05T12:47:11.939Z,0.31
2023-05-05T12:49:48.859Z,0.35
2023-05-05T12:52:17.248Z,0.32
2023-05-05T12:54:55.121Z,0.31
2023-05-05T12:57:23.559Z,0.31
2023-05-05T12:59:52.171Z,0.26
2023-05-05T13:02:19.902Z,0.28
2023-05-05T13:04:52.448Z,0.24
2023-05-05T13:07:21.878Z,0.29
2023-05-05T13:09:50.909Z,0.25
2023-05-05T13:12:18.541Z,0.27
2023-05-05T13:14:46.527Z,0.29
2023-05-05T13:17:14.384Z,0.29
2023-05-05T13:19:42.179Z,0.25
2023-05-05T13:22:09.665Z,0.26
2023-05-05T13:24:49.588Z,0.28
2023-05-05T13:27:18.977Z,0.29
2023-05-05T13:29:46.183Z,0.28
2023-05-05T13:32:15.531Z,0.29
2023-05-05T13:34:42.688Z,0.32
2023-05-05T13:37:16.583Z,0.31
2023-05-05T13:39:44.972Z,0.31
2023-05-05T13:42:12.209Z,0.31
2023-05-05T13:44:39.082Z,0.31
2023-05-05T13:47:08.694Z,0.30
2023-05-05T13:49:35.824Z,0.30
2023-05-05T13:52:02.609Z,0.30
2023-05-05T13:54:29.760Z,0.30
2023-05-05T13:56:58.267Z,0.38
2023-05-05T13:59:25.263Z,0.34
2023-05-05T14:01:52.173Z,0.32
2023-05-05T14:04:19.078Z,0.31
2023-05-05T14:06:45.959Z,0.26
2023-05-05T14:09:12.681Z,0.38
2023-05-05T14:11:39.505Z,0.39
2023-05-05T14:14:07.596Z,0.35
2023-05-05T14:16:35.464Z,0.28
2023-05-05T14:19:02.281Z,0.29
2023-05-05T14:21:29.008Z,0.34
2023-05-05T14:23:55.730Z,0.36
2023-05-05T14:26:22.546Z,0.33
2023-05-05T14:28:50.083Z,0.28
2023-05-05T14:31:18.383Z,0.34
2023-05-05T14:33:45.135Z,0.32
2023-05-05T14:36:11.977Z,0.31
2023-05-05T14:38:38.836Z,0.31
2023-05-05T14:41:05.644Z,0.28
2023-05-05T14:43:32.441Z,0.24
2023-05-05T14:45:59.676Z,0.23
2023-05-05T14:48:28.101Z,0.26
2023-05-05T14:50:55.205Z,0.28
2023-05-05T14:53:22.037Z,0.24
2023-05-05T14:55:48.972Z,0.27
2023-05-05T14:58:15.772Z,0.28
2023-05-05T15:00:42.648Z,0.29
2023-05-05T15:03:09.421Z,0.26
2023-05-05T15:05:38.571Z,0.23
2023-05-05T15:08:05.892Z,0.27
2023-05-05T15:10:32.653Z,0.23
2023-05-05T15:12:59.418Z,0.25
2023-05-05T15:15:26.229Z,0.27
2023-05-05T15:17:53.277Z,0.28
2023-05-05T15:20:20.121Z,0.29
2023-05-05T15:22:49.659Z,0.25
2023-05-05T15:25:16.540Z,0.32
2023-05-05T15:27:43.418Z,0.31
2023-05-05T15:30:11.419Z,0.31
2023-05-05T15:32:38.298Z,0.27
2023-05-05T15:35:05.628Z,0.25
2023-05-05T15:37:32.512Z,0.26
2023-05-05T15:40:00.718Z,0.28
2023-05-05T15:42:27.540Z,0.30
2023-05-05T15:44:54.351Z,0.25
2023-05-05T15:47:21.107Z,0.23
2023-05-05T15:49:47.882Z,0.21
2023-05-05T15:52:14.624Z,0.21
2023-05-05T15:54:41.413Z,0.25
2023-05-05T15:57:09.573Z,0.23
2023-05-05T15:59:36.409Z,0.21
2023-05-05T16:02:03.312Z,0.21
2023-05-05T16:04:31.010Z,0.20
2023-05-05T16:06:57.770Z,0.30
2023-05-05T16:09:24.594Z,0.30
2023-05-05T16:11:53.011Z,0.25
2023-05-05T16:14:21.725Z,0.23
2023-05-05T16:16:48.734Z,0.24
2023-05-05T16:19:15.529Z,0.27
2023-05-05T16:21:42.432Z,0.28
2023-05-05T16:24:09.214Z,0.31
2023-05-05T16:26:36.037Z,0.31
2023-05-05T16:29:02.922Z,0.29
2023-05-05T16:31:31.179Z,0.27
2023-05-05T16:33:58.008Z,0.28
2023-05-05T16:36:24.822Z,0.24
2023-05-05T16:38:51.611Z,0.41
2023-05-05T16:41:18.445Z,0.36
2023-05-05T16:43:45.427Z,0.39
2023-05-05T16:46:12.322Z,0.33
2023-05-05T16:48:40.633Z,0.31
2023-05-05T16:51:07.515Z,0.29
2023-05-05T16:53:34.263Z,0.34
2023-05-05T16:56:01.008Z,0.32
2023-05-05T16:58:27.978Z,0.34
2023-05-05T17:00:54.718Z,0.32
2023-05-05T17:03:22.152Z,0.34
2023-05-05T17:05:53.034Z,0.41
2023-05-05T17:08:19.993Z,0.36
2023-05-05T17:10:46.747Z,0.34
2023-05-05T17:13:14.422Z,0.37
2023-05-05T17:15:41.798Z,0.36
2023-05-05T17:18:09.029Z,0.41
2023-05-05T17:20:36.204Z,0.54
2023-05-05T17:23:04.494Z,0.47
2023-05-05T17:25:31.384Z,0.49
2023-05-05T17:27:58.146Z,0.40
2023-05-05T17:30:25.061Z,0.45
2023-05-05T17:32:52.074Z,0.47
2023-05-05T17:35:19.147Z,0.47
2023-05-05T17:37:45.969Z,0.44
2023-05-05T17:40:14.326Z,0.46
2023-05-05T17:42:41.074Z,0.42
2023-05-05T17:45:09.373Z,0.42
2023-05-05T17:47:36.436Z,0.39
2023-05-05T17:50:03.951Z,0.40
2023-05-05T17:52:30.817Z,0.52
2023-05-05T17:54:57.791Z,0.52
2023-05-05T17:57:25.945Z,0.46
2023-05-05T17:59:52.669Z,0.39
2023-05-05T18:02:19.668Z,0.39
2023-05-05T18:04:46.667Z,0.40
2023-05-05T18:07:14.037Z,0.59
2023-05-05T18:09:41.112Z,0.55
2023-05-05T18:12:07.923Z,0.52
2023-05-05T18:14:36.334Z,0.54
2023-05-05T18:17:03.252Z,0.65
2023-05-05T18:19:30.452Z,0.58
2023-05-05T18:21:59.093Z,0.55
2023-05-05T18:24:26.832Z,0.48
2023-05-05T18:26:53.883Z,0.49
2023-05-05T18:29:21.968Z,0.45
2023-05-05T18:31:50.342Z,0.56
2023-05-05T18:34:17.578Z,0.54
2023-05-05T18:36:44.834Z,0.60
2023-05-05T18:39:11.626Z,0.55
2023-05-05T18:41:38.492Z,0.57
2023-05-05T18:44:05.379Z,0.55
2023-05-05T18:46:32.159Z,0.58
2023-05-05T18:49:00.519Z,0.60
2023-05-05T18:51:27.269Z,0.61
2023-05-05T18:53:54.152Z,0.61
2023-05-05T18:56:20.995Z,0.62
2023-05-05T18:58:47.759Z,0.88
2023-05-05T19:01:14.640Z,1.86
2023-05-05T19:03:41.439Z,1.46
2023-05-05T19:06:09.632Z,4.28
2023-05-05T19:08:36.450Z,6.18
2023-05-05T19:11:03.219Z,8.10
2023-05-05T19:13:30.091Z,4.86
2023-05-05T19:15:57.200Z,3.09
2023-05-05T19:18:23.985Z,1.98
2023-05-05T19:20:50.829Z,1.44
2023-05-05T19:23:18.988Z,1.18
2023-05-05T19:25:45.784Z,0.98
2023-05-05T19:28:13.516Z,0.84
2023-05-05T19:30:40.247Z,0.78
2023-05-05T19:33:07.177Z,0.73
2023-05-05T19:35:33.984Z,0.62
2023-05-05T19:38:00.773Z,0.64
2023-05-05T19:40:28.913Z,0.58
2023-05-05T19:42:55.960Z,0.54
2023-05-05T19:45:22.762Z,0.63
2023-05-05T19:47:49.521Z,0.61
2023-05-05T19:50:16.400Z,0.50
2023-05-05T19:52:43.150Z,0.55
2023-05-05T19:55:10.124Z,0.58
2023-05-05T19:57:38.720Z,0.49
2023-05-05T20:00:07.110Z,0.55
2023-05-05T20:02:36.746Z,0.48
2023-05-05T20:05:04.353Z,0.44
2023-05-05T20:07:31.282Z,0.64
2023-05-05T20:09:58.740Z,0.83
2023-05-05T20:12:25.650Z,0.73
2023-05-05T20:14:53.822Z,0.72
2023-05-05T20:17:20.741Z,0.71
2023-05-05T20:19:47.557Z,0.58
2023-05-05T20:22:14.285Z,0.49
2023-05-05T20:24:41.226Z,0.47
2023-05-05T20:27:08.025Z,0.44
2023-05-05T20:29:34.753Z,0.49
2023-05-05T20:32:03.308Z,0.45
2023-05-05T20:34:30.170Z,0.38
2023-05-05T20:36:57.044Z,0.38
2023-05-05T20:39:23.785Z,0.35
2023-05-05T20:41:50.536Z,0.37
2023-05-05T20:44:17.274Z,0.34
2023-05-05T20:46:44.144Z,0.32
2023-05-05T20:49:12.641Z,0.40
2023-05-05T20:51:39.496Z,0.36
2023-05-05T20:54:06.275Z,0.42
2023-05-05T20:56:33.095Z,0.41
2023-05-05T20:58:59.904Z,0.36
2023-05-05T21:01:26.890Z,0.33
2023-05-05T21:03:53.881Z,0.36
2023-05-05T21:06:21.981Z,0.37
2023-05-05T21:08:48.808Z,0.44
2023-05-05T21:11:15.597Z,0.33
2023-05-05T21:13:42.395Z,0.27
2023-05-05T21:16:09.361Z,0.28
2023-05-05T21:18:36.128Z,0.24
2023-05-05T21:21:02.955Z,0.22
2023-05-05T21:23:31.229Z,0.26
2023-05-05T21:25:58.116Z,0.28
2023-05-05T21:28:24.864Z,0.24
2023-05-05T21:31:10.379Z,0.26
2023-05-05T21:33:38.343Z,0.28
2023-05-05T21:36:05.895Z,0.28
2023-05-05T21:38:34.061Z,0.24
2023-05-05T21:41:00.969Z,0.27
2023-05-05T21:43:27.815Z,0.28
2023-05-05T21:46:00.744Z,0.35
2023-05-05T21:48:27.692Z,0.33
2023-05-05T21:50:54.610Z,0.27
2023-05-05T21:53:21.504Z,0.24
2023-05-05T21:55:49.842Z,0.22
2023-05-05T21:58:16.585Z,0.21
2023-05-05T22:00:43.337Z,0.25
2023-05-05T22:03:10.185Z,0.23
2023-05-05T22:05:36.956Z,0.28
2023-05-05T22:08:04.112Z,0.24
2023-05-05T22:10:30.855Z,0.22
2023-05-05T22:12:58.974Z,0.25
2023-05-05T22:15:30.006Z,0.28
2023-05-05T22:17:59.801Z,0.29
2023-05-05T22:20:26.712Z,0.25
2023-05-05T22:22:53.537Z,0.22
2023-05-05T22:25:20.800Z,0.21
2023-05-05T22:27:47.621Z,0.25
2023-05-05T22:30:15.981Z,0.32
2023-05-05T22:32:42.807Z,0.26
2023-05-05T22:35:09.948Z,0.33
2023-05-05T22:37:36.898Z,0.29
2023-05-05T22:40:04.548Z,0.29
2023-05-05T22:42:31.316Z,0.30
2023-05-05T22:44:58.074Z,0.25
2023-05-05T22:47:26.374Z,0.27
2023-05-05T22:49:53.253Z,0.29
2023-05-05T22:52:20.273Z,0.30
2023-05-05T22:54:47.057Z,0.49
2023-05-05T22:57:13.828Z,0.35
2023-05-05T22:59:40.680Z,0.33
2023-05-05T23:02:07.421Z,0.27
2023-05-05T23:04:35.669Z,0.30
2023-05-05T23:07:02.550Z,0.33
2023-05-05T23:09:29.394Z,0.31
2023-05-05T23:11:56.244Z,0.35
2023-05-05T23:14:23.046Z,0.33
2023-05-05T23:16:49.804Z,0.42
2023-05-05T23:19:16.657Z,0.32
2023-05-05T23:21:52.784Z,0.31
2023-05-05T23:24:20.542Z,0.35
2023-05-05T23:26:47.342Z,0.31
2023-05-05T23:29:14.142Z,0.26
2023-05-05T23:31:41.253Z,0.23
2023-05-05T23:34:08.017Z,0.22
2023-05-05T23:36:34.796Z,0.24
2023-05-05T23:39:03.027Z,0.22
2023-05-05T23:41:29.843Z,0.31
2023-05-05T23:43:56.871Z,0.26
2023-05-05T23:46:23.785Z,0.42
2023-05-05T23:48:50.881Z,0.37
2023-05-05T23:51:18.032Z,0.34
2023-05-05T23:53:44.868Z,0.29
2023-05-05T23:56:13.116Z,0.25
2023-05-05T23:58:39.968Z,0.25
